sensor_id;sensor_type;location;lat;lon;timestamp;P1;durP1;ratioP1;P2;durP2;ratioP2
72127;SDS011;60000;51.030;7.024;2022-12-29T00:02:14;4.87;;;1.50;;
72127;SDS011;60000;51.030;7.024;2022-12-29T00:04:40;3.53;;;1.10;;
72127;SDS011;60000;51.030;7.024;2022-12-29T00:07:05;2.87;;;0.93;;
72127;SDS011;60000;51.030;7.024;2022-12-29T00:09:31;2.60;;;1.00;;
72127;SDS011;60000;51.030;7.024;2022-12-29T00:11:57;3.72;;;1.30;;
72127;SDS011;60000;51.030;7.024;2022-12-29T00:14:22;3.30;;;1.13;;
72127;SDS011;60000;51.030;7.024;2022-12-29T00:17:06;2.30;;;0.90;;
72127;SDS011;60000;51.030;7.024;2022-12-29T00:19:32;2.67;;;1.00;;
72127;SDS011;60000;51.030;7.024;2022-12-29T00:22:16;2.95;;;1.10;;
72127;SDS011;60000;51.030;7.024;2022-12-29T00:25:00;4.82;;;1.08;;
72127;SDS011;60000;51.030;7.024;2022-12-29T00:27:44;2.78;;;1.00;;
72127;SDS011;60000;51.030;7.024;2022-12-29T00:30:28;2.63;;;0.80;;
72127;SDS011;60000;51.030;7.024;2022-12-29T00:33:13;2.28;;;0.77;;
72127;SDS011;60000;51.030;7.024;2022-12-29T00:38:31;2.38;;;0.90;;
72127;SDS011;60000;51.030;7.024;2022-12-29T00:41:18;2.10;;;0.80;;
72127;SDS011;60000;51.030;7.024;2022-12-29T00:44:02;2.10;;;0.80;;
72127;SDS011;60000;51.030;7.024;2022-12-29T00:46:31;4.05;;;1.02;;
72127;SDS011;60000;51.030;7.024;2022-12-29T00:48:57;1.98;;;0.75;;
72127;SDS011;60000;51.030;7.024;2022-12-29T00:51:41;2.40;;;0.77;;
72127;SDS011;60000;51.030;7.024;2022-12-29T00:54:07;3.17;;;1.10;;
72127;SDS011;60000;51.030;7.024;2022-12-29T00:56:32;2.50;;;0.97;;
72127;SDS011;60000;51.030;7.024;2022-12-29T00:59:01;3.55;;;0.80;;
72127;SDS011;60000;51.030;7.024;2022-12-29T01:04:22;2.33;;;0.98;;
72127;SDS011;60000;51.030;7.024;2022-12-29T01:06:49;2.15;;;0.93;;
72127;SDS011;60000;51.030;7.024;2022-12-29T01:09:14;2.10;;;0.70;;
72127;SDS011;60000;51.030;7.024;2022-12-29T01:11:59;3.45;;;0.80;;
72127;SDS011;60000;51.030;7.024;2022-12-29T01:14:24;2.43;;;0.90;;
72127;SDS011;60000;51.030;7.024;2022-12-29T01:16:50;1.80;;;0.65;;
72127;SDS011;60000;51.030;7.024;2022-12-29T01:19:17;2.22;;;0.75;;
72127;SDS011;60000;51.030;7.024;2022-12-29T01:21:43;2.10;;;1.00;;
72127;SDS011;60000;51.030;7.024;2022-12-29T01:24:08;2.23;;;0.80;;
72127;SDS011;60000;51.030;7.024;2022-12-29T01:26:34;2.10;;;0.68;;
72127;SDS011;60000;51.030;7.024;2022-12-29T01:28:59;1.50;;;0.70;;
72127;SDS011;60000;51.030;7.024;2022-12-29T01:31:24;2.10;;;0.63;;
72127;SDS011;60000;51.030;7.024;2022-12-29T01:33:50;1.60;;;0.90;;
72127;SDS011;60000;51.030;7.024;2022-12-29T01:36:16;2.23;;;0.60;;
72127;SDS011;60000;51.030;7.024;2022-12-29T01:38:42;1.95;;;0.90;;
72127;SDS011;60000;51.030;7.024;2022-12-29T01:41:09;1.67;;;0.80;;
72127;SDS011;60000;51.030;7.024;2022-12-29T01:43:39;2.08;;;0.80;;
72127;SDS011;60000;51.030;7.024;2022-12-29T01:46:07;1.48;;;0.60;;
72127;SDS011;60000;51.030;7.024;2022-12-29T01:48:43;1.20;;;0.60;;
72127;SDS011;60000;51.030;7.024;2022-12-29T01:51:11;2.13;;;0.90;;
72127;SDS011;60000;51.030;7.024;2022-12-29T01:53:36;2.03;;;0.90;;
72127;SDS011;60000;51.030;7.024;2022-12-29T01:56:04;2.40;;;1.10;;
72127;SDS011;60000;51.030;7.024;2022-12-29T01:58:32;2.10;;;0.77;;
72127;SDS011;60000;51.030;7.024;2022-12-29T02:01:01;2.05;;;0.80;;
72127;SDS011;60000;51.030;7.024;2022-12-29T02:03:27;2.42;;;1.02;;
72127;SDS011;60000;51.030;7.024;2022-12-29T02:06:15;2.47;;;1.10;;
72127;SDS011;60000;51.030;7.024;2022-12-29T02:08:46;2.85;;;1.00;;
72127;SDS011;60000;51.030;7.024;2022-12-29T02:11:12;3.42;;;0.80;;
72127;SDS011;60000;51.030;7.024;2022-12-29T02:13:38;2.53;;;0.80;;
72127;SDS011;60000;51.030;7.024;2022-12-29T02:16:23;2.13;;;0.90;;
72127;SDS011;60000;51.030;7.024;2022-12-29T02:24:36;3.47;;;0.73;;
72127;SDS011;60000;51.030;7.024;2022-12-29T02:30:05;1.70;;;0.70;;
72127;SDS011;60000;51.030;7.024;2022-12-29T02:35:25;1.80;;;0.70;;
72127;SDS011;60000;51.030;7.024;2022-12-29T02:43:41;3.17;;;0.80;;
72127;SDS011;60000;51.030;7.024;2022-12-29T02:54:13;2.50;;;0.90;;
72127;SDS011;60000;51.030;7.024;2022-12-29T02:56:56;2.00;;;0.90;;
72127;SDS011;60000;51.030;7.024;2022-12-29T02:59:22;2.10;;;0.90;;
72127;SDS011;60000;51.030;7.024;2022-12-29T03:02:07;3.03;;;0.88;;
72127;SDS011;60000;51.030;7.024;2022-12-29T03:10:48;2.85;;;0.90;;
72127;SDS011;60000;51.030;7.024;2022-12-29T03:13:26;3.38;;;0.93;;
72127;SDS011;60000;51.030;7.024;2022-12-29T03:19:15;1.92;;;0.82;;
72127;SDS011;60000;51.030;7.024;2022-12-29T03:21:57;2.33;;;1.00;;
72127;SDS011;60000;51.030;7.024;2022-12-29T03:24:45;1.85;;;0.88;;
72127;SDS011;60000;51.030;7.024;2022-12-29T03:27:16;1.50;;;0.65;;
72127;SDS011;60000;51.030;7.024;2022-12-29T03:29:47;3.28;;;0.73;;
72127;SDS011;60000;51.030;7.024;2022-12-29T03:32:19;3.40;;;0.85;;
72127;SDS011;60000;51.030;7.024;2022-12-29T03:34:46;4.07;;;0.80;;
72127;SDS011;60000;51.030;7.024;2022-12-29T03:37:14;3.67;;;1.00;;
72127;SDS011;60000;51.030;7.024;2022-12-29T03:39:43;2.38;;;1.00;;
72127;SDS011;60000;51.030;7.024;2022-12-29T03:42:16;2.03;;;0.77;;
72127;SDS011;60000;51.030;7.024;2022-12-29T03:44:45;2.28;;;1.00;;
72127;SDS011;60000;51.030;7.024;2022-12-29T03:47:11;2.50;;;1.02;;
72127;SDS011;60000;51.030;7.024;2022-12-29T03:49:38;2.28;;;0.90;;
72127;SDS011;60000;51.030;7.024;2022-12-29T03:52:04;1.73;;;0.80;;
72127;SDS011;60000;51.030;7.024;2022-12-29T03:54:30;1.90;;;0.90;;
72127;SDS011;60000;51.030;7.024;2022-12-29T03:56:55;2.20;;;0.70;;
72127;SDS011;60000;51.030;7.024;2022-12-29T03:59:21;2.40;;;0.90;;
72127;SDS011;60000;51.030;7.024;2022-12-29T04:01:46;1.80;;;0.80;;
72127;SDS011;60000;51.030;7.024;2022-12-29T04:04:11;2.17;;;0.90;;
72127;SDS011;60000;51.030;7.024;2022-12-29T04:06:37;1.88;;;0.82;;
72127;SDS011;60000;51.030;7.024;2022-12-29T04:09:02;1.53;;;0.70;;
72127;SDS011;60000;51.030;7.024;2022-12-29T04:11:28;2.47;;;1.03;;
72127;SDS011;60000;51.030;7.024;2022-12-29T04:13:53;2.70;;;1.00;;
72127;SDS011;60000;51.030;7.024;2022-12-29T04:16:18;2.67;;;0.90;;
72127;SDS011;60000;51.030;7.024;2022-12-29T04:18:44;2.20;;;0.80;;
72127;SDS011;60000;51.030;7.024;2022-12-29T04:21:09;2.13;;;0.70;;
72127;SDS011;60000;51.030;7.024;2022-12-29T04:23:35;1.77;;;0.95;;
72127;SDS011;60000;51.030;7.024;2022-12-29T04:26:02;2.63;;;0.90;;
72127;SDS011;60000;51.030;7.024;2022-12-29T04:28:28;2.15;;;0.90;;
72127;SDS011;60000;51.030;7.024;2022-12-29T04:30:54;2.50;;;1.00;;
72127;SDS011;60000;51.030;7.024;2022-12-29T04:33:20;1.80;;;0.80;;
72127;SDS011;60000;51.030;7.024;2022-12-29T04:35:46;2.85;;;0.90;;
72127;SDS011;60000;51.030;7.024;2022-12-29T04:38:12;2.10;;;0.98;;
72127;SDS011;60000;51.030;7.024;2022-12-29T04:40:38;2.20;;;1.00;;
72127;SDS011;60000;51.030;7.024;2022-12-29T04:43:05;2.30;;;0.90;;
72127;SDS011;60000;51.030;7.024;2022-12-29T04:45:30;2.38;;;0.98;;
72127;SDS011;60000;51.030;7.024;2022-12-29T04:47:56;2.23;;;1.00;;
72127;SDS011;60000;51.030;7.024;2022-12-29T04:50:21;3.03;;;1.27;;
72127;SDS011;60000;51.030;7.024;2022-12-29T04:52:46;3.03;;;1.10;;
72127;SDS011;60000;51.030;7.024;2022-12-29T04:55:12;3.33;;;1.10;;
72127;SDS011;60000;51.030;7.024;2022-12-29T04:57:37;2.17;;;0.80;;
72127;SDS011;60000;51.030;7.024;2022-12-29T05:00:03;2.90;;;0.80;;
72127;SDS011;60000;51.030;7.024;2022-12-29T05:02:30;2.13;;;0.90;;
72127;SDS011;60000;51.030;7.024;2022-12-29T05:04:55;3.13;;;1.00;;
72127;SDS011;60000;51.030;7.024;2022-12-29T05:07:21;1.98;;;0.82;;
72127;SDS011;60000;51.030;7.024;2022-12-29T05:09:46;3.07;;;0.90;;
72127;SDS011;60000;51.030;7.024;2022-12-29T05:12:11;2.43;;;0.90;;
72127;SDS011;60000;51.030;7.024;2022-12-29T05:14:37;3.50;;;1.20;;
72127;SDS011;60000;51.030;7.024;2022-12-29T05:17:02;3.05;;;0.82;;
72127;SDS011;60000;51.030;7.024;2022-12-29T05:19:28;2.40;;;0.70;;
72127;SDS011;60000;51.030;7.024;2022-12-29T05:21:53;4.03;;;1.00;;
72127;SDS011;60000;51.030;7.024;2022-12-29T05:24:19;2.20;;;0.80;;
72127;SDS011;60000;51.030;7.024;2022-12-29T05:26:44;2.43;;;1.00;;
72127;SDS011;60000;51.030;7.024;2022-12-29T05:29:10;3.20;;;0.73;;
72127;SDS011;60000;51.030;7.024;2022-12-29T05:31:35;3.23;;;0.83;;
72127;SDS011;60000;51.030;7.024;2022-12-29T05:34:01;3.05;;;1.00;;
72127;SDS011;60000;51.030;7.024;2022-12-29T05:36:26;1.97;;;0.80;;
72127;SDS011;60000;51.030;7.024;2022-12-29T05:38:52;3.13;;;1.20;;
72127;SDS011;60000;51.030;7.024;2022-12-29T05:41:17;2.93;;;1.10;;
72127;SDS011;60000;51.030;7.024;2022-12-29T05:43:42;2.75;;;0.80;;
72127;SDS011;60000;51.030;7.024;2022-12-29T05:46:08;2.23;;;0.60;;
72127;SDS011;60000;51.030;7.024;2022-12-29T05:48:33;3.77;;;1.30;;
72127;SDS011;60000;51.030;7.024;2022-12-29T05:50:58;1.90;;;0.70;;
72127;SDS011;60000;51.030;7.024;2022-12-29T05:53:24;1.90;;;1.00;;
72127;SDS011;60000;51.030;7.024;2022-12-29T05:55:49;1.97;;;0.80;;
72127;SDS011;60000;51.030;7.024;2022-12-29T05:58:17;2.57;;;0.80;;
72127;SDS011;60000;51.030;7.024;2022-12-29T06:00:43;2.03;;;0.90;;
72127;SDS011;60000;51.030;7.024;2022-12-29T06:03:09;2.75;;;0.90;;
72127;SDS011;60000;51.030;7.024;2022-12-29T06:05:34;3.40;;;0.90;;
72127;SDS011;60000;51.030;7.024;2022-12-29T06:07:59;5.27;;;1.20;;
72127;SDS011;60000;51.030;7.024;2022-12-29T06:10:25;3.33;;;0.87;;
72127;SDS011;60000;51.030;7.024;2022-12-29T06:12:50;3.65;;;1.25;;
72127;SDS011;60000;51.030;7.024;2022-12-29T06:15:16;4.50;;;1.40;;
72127;SDS011;60000;51.030;7.024;2022-12-29T06:17:42;6.25;;;2.65;;
72127;SDS011;60000;51.030;7.024;2022-12-29T06:20:08;5.13;;;1.80;;
72127;SDS011;60000;51.030;7.024;2022-12-29T06:22:34;7.60;;;3.33;;
72127;SDS011;60000;51.030;7.024;2022-12-29T06:24:59;2.57;;;0.90;;
72127;SDS011;60000;51.030;7.024;2022-12-29T06:27:26;2.85;;;1.00;;
72127;SDS011;60000;51.030;7.024;2022-12-29T06:29:51;2.97;;;0.80;;
72127;SDS011;60000;51.030;7.024;2022-12-29T06:32:17;4.00;;;1.00;;
72127;SDS011;60000;51.030;7.024;2022-12-29T06:34:42;3.60;;;1.00;;
72127;SDS011;60000;51.030;7.024;2022-12-29T06:37:09;4.40;;;0.90;;
72127;SDS011;60000;51.030;7.024;2022-12-29T06:39:35;2.47;;;1.00;;
72127;SDS011;60000;51.030;7.024;2022-12-29T06:42:00;3.20;;;0.80;;
72127;SDS011;60000;51.030;7.024;2022-12-29T06:44:26;2.88;;;0.93;;
72127;SDS011;60000;51.030;7.024;2022-12-29T06:46:51;2.57;;;0.87;;
72127;SDS011;60000;51.030;7.024;2022-12-29T06:49:16;2.67;;;0.90;;
72127;SDS011;60000;51.030;7.024;2022-12-29T06:51:42;5.30;;;0.80;;
72127;SDS011;60000;51.030;7.024;2022-12-29T06:54:07;2.90;;;1.00;;
72127;SDS011;60000;51.030;7.024;2022-12-29T06:56:33;3.25;;;0.82;;
72127;SDS011;60000;51.030;7.024;2022-12-29T06:58:58;3.08;;;0.90;;
72127;SDS011;60000;51.030;7.024;2022-12-29T07:01:25;2.40;;;0.70;;
72127;SDS011;60000;51.030;7.024;2022-12-29T07:03:51;2.38;;;0.98;;
72127;SDS011;60000;51.030;7.024;2022-12-29T07:06:16;2.57;;;1.00;;
72127;SDS011;60000;51.030;7.024;2022-12-29T07:08:42;2.17;;;0.90;;
72127;SDS011;60000;51.030;7.024;2022-12-29T07:11:07;2.37;;;0.70;;
72127;SDS011;60000;51.030;7.024;2022-12-29T07:13:33;3.00;;;1.00;;
72127;SDS011;60000;51.030;7.024;2022-12-29T07:15:58;2.63;;;0.60;;
72127;SDS011;60000;51.030;7.024;2022-12-29T07:18:24;3.60;;;0.97;;
72127;SDS011;60000;51.030;7.024;2022-12-29T07:20:49;3.53;;;0.90;;
72127;SDS011;60000;51.030;7.024;2022-12-29T07:23:14;2.43;;;0.53;;
72127;SDS011;60000;51.030;7.024;2022-12-29T07:25:40;2.60;;;0.65;;
72127;SDS011;60000;51.030;7.024;2022-12-29T07:28:06;2.77;;;0.70;;
72127;SDS011;60000;51.030;7.024;2022-12-29T07:30:32;3.28;;;0.73;;
72127;SDS011;60000;51.030;7.024;2022-12-29T07:32:57;2.70;;;0.80;;
72127;SDS011;60000;51.030;7.024;2022-12-29T07:35:23;3.20;;;0.70;;
72127;SDS011;60000;51.030;7.024;2022-12-29T07:37:48;2.53;;;0.80;;
72127;SDS011;60000;51.030;7.024;2022-12-29T07:40:13;6.67;;;0.87;;
72127;SDS011;60000;51.030;7.024;2022-12-29T07:42:39;2.53;;;0.80;;
72127;SDS011;60000;51.030;7.024;2022-12-29T07:45:04;3.53;;;0.80;;
72127;SDS011;60000;51.030;7.024;2022-12-29T07:47:30;2.47;;;0.80;;
72127;SDS011;60000;51.030;7.024;2022-12-29T07:49:55;3.40;;;0.70;;
72127;SDS011;60000;51.030;7.024;2022-12-29T07:52:21;5.20;;;0.80;;
72127;SDS011;60000;51.030;7.024;2022-12-29T07:54:46;7.47;;;1.08;;
72127;SDS011;60000;51.030;7.024;2022-12-29T07:57:12;7.20;;;1.50;;
72127;SDS011;60000;51.030;7.024;2022-12-29T07:59:37;5.30;;;0.90;;
72127;SDS011;60000;51.030;7.024;2022-12-29T08:02:02;3.23;;;0.90;;
72127;SDS011;60000;51.030;7.024;2022-12-29T08:04:28;4.10;;;1.10;;
72127;SDS011;60000;51.030;7.024;2022-12-29T08:06:53;2.33;;;0.70;;
72127;SDS011;60000;51.030;7.024;2022-12-29T08:09:18;5.38;;;0.93;;
72127;SDS011;60000;51.030;7.024;2022-12-29T08:11:44;1.85;;;0.80;;
72127;SDS011;60000;51.030;7.024;2022-12-29T08:14:09;5.23;;;1.00;;
72127;SDS011;60000;51.030;7.024;2022-12-29T08:16:35;2.53;;;0.80;;
72127;SDS011;60000;51.030;7.024;2022-12-29T08:19:00;3.88;;;0.90;;
72127;SDS011;60000;51.030;7.024;2022-12-29T08:21:29;4.00;;;0.80;;
72127;SDS011;60000;51.030;7.024;2022-12-29T08:23:55;3.28;;;0.82;;
72127;SDS011;60000;51.030;7.024;2022-12-29T08:26:20;4.20;;;1.10;;
72127;SDS011;60000;51.030;7.024;2022-12-29T08:28:45;3.73;;;0.90;;
72127;SDS011;60000;51.030;7.024;2022-12-29T08:31:11;5.30;;;1.45;;
72127;SDS011;60000;51.030;7.024;2022-12-29T08:33:36;4.53;;;1.00;;
72127;SDS011;60000;51.030;7.024;2022-12-29T08:36:03;4.43;;;1.17;;
72127;SDS011;60000;51.030;7.024;2022-12-29T08:38:30;5.78;;;1.13;;
72127;SDS011;60000;51.030;7.024;2022-12-29T08:40:55;3.17;;;0.70;;
72127;SDS011;60000;51.030;7.024;2022-12-29T08:43:22;5.13;;;1.00;;
72127;SDS011;60000;51.030;7.024;2022-12-29T08:45:47;5.32;;;1.27;;
72127;SDS011;60000;51.030;7.024;2022-12-29T08:48:12;5.00;;;1.03;;
72127;SDS011;60000;51.030;7.024;2022-12-29T08:50:38;5.60;;;1.57;;
72127;SDS011;60000;51.030;7.024;2022-12-29T08:53:03;4.07;;;1.00;;
72127;SDS011;60000;51.030;7.024;2022-12-29T08:55:28;8.77;;;1.20;;
72127;SDS011;60000;51.030;7.024;2022-12-29T08:57:54;3.05;;;0.80;;
72127;SDS011;60000;51.030;7.024;2022-12-29T09:00:19;4.73;;;0.90;;
72127;SDS011;60000;51.030;7.024;2022-12-29T09:02:45;5.45;;;0.90;;
72127;SDS011;60000;51.030;7.024;2022-12-29T09:05:10;5.35;;;1.10;;
72127;SDS011;60000;51.030;7.024;2022-12-29T09:07:36;5.83;;;1.10;;
72127;SDS011;60000;51.030;7.024;2022-12-29T09:10:02;6.20;;;1.13;;
72127;SDS011;60000;51.030;7.024;2022-12-29T09:12:28;5.68;;;1.00;;
72127;SDS011;60000;51.030;7.024;2022-12-29T09:14:53;8.13;;;0.97;;
72127;SDS011;60000;51.030;7.024;2022-12-29T09:17:18;4.27;;;1.20;;
72127;SDS011;60000;51.030;7.024;2022-12-29T09:20:02;4.47;;;1.20;;
72127;SDS011;60000;51.030;7.024;2022-12-29T09:22:28;5.07;;;1.20;;
72127;SDS011;60000;51.030;7.024;2022-12-29T09:24:54;3.08;;;0.98;;
72127;SDS011;60000;51.030;7.024;2022-12-29T09:27:19;4.07;;;1.00;;
72127;SDS011;60000;51.030;7.024;2022-12-29T09:29:44;9.37;;;1.00;;
72127;SDS011;60000;51.030;7.024;2022-12-29T09:32:10;5.80;;;1.07;;
72127;SDS011;60000;51.030;7.024;2022-12-29T09:34:35;5.20;;;1.30;;
72127;SDS011;60000;51.030;7.024;2022-12-29T09:37:00;4.07;;;0.83;;
72127;SDS011;60000;51.030;7.024;2022-12-29T09:39:25;4.37;;;0.90;;
72127;SDS011;60000;51.030;7.024;2022-12-29T09:47:00;5.55;;;1.20;;
72127;SDS011;60000;51.030;7.024;2022-12-29T09:52:23;7.28;;;1.58;;
72127;SDS011;60000;51.030;7.024;2022-12-29T09:55:10;6.65;;;1.30;;
72127;SDS011;60000;51.030;7.024;2022-12-29T10:03:46;4.78;;;1.25;;
72127;SDS011;60000;51.030;7.024;2022-12-29T10:17:48;5.13;;;1.38;;
72127;SDS011;60000;51.030;7.024;2022-12-29T10:20:48;4.47;;;0.98;;
72127;SDS011;60000;51.030;7.024;2022-12-29T10:25:57;9.25;;;2.95;;
72127;SDS011;60000;51.030;7.024;2022-12-29T10:28:34;11.38;;;3.55;;
72127;SDS011;60000;51.030;7.024;2022-12-29T10:31:05;6.85;;;1.33;;
72127;SDS011;60000;51.030;7.024;2022-12-29T10:33:39;4.00;;;1.25;;
72127;SDS011;60000;51.030;7.024;2022-12-29T10:36:12;6.68;;;1.92;;
72127;SDS011;60000;51.030;7.024;2022-12-29T10:38:47;6.85;;;1.77;;
72127;SDS011;60000;51.030;7.024;2022-12-29T10:41:23;5.82;;;1.30;;
72127;SDS011;60000;51.030;7.024;2022-12-29T10:43:53;12.57;;;1.63;;
72127;SDS011;60000;51.030;7.024;2022-12-29T10:46:23;7.88;;;1.40;;
72127;SDS011;60000;51.030;7.024;2022-12-29T10:48:54;6.45;;;1.10;;
72127;SDS011;60000;51.030;7.024;2022-12-29T10:54:09;5.35;;;1.00;;
72127;SDS011;60000;51.030;7.024;2022-12-29T10:56:39;7.03;;;3.13;;
72127;SDS011;60000;51.030;7.024;2022-12-29T11:07:01;21.10;;;12.83;;
72127;SDS011;60000;51.030;7.024;2022-12-29T11:09:29;8.63;;;3.75;;
72127;SDS011;60000;51.030;7.024;2022-12-29T11:11:57;14.27;;;6.53;;
72127;SDS011;60000;51.030;7.024;2022-12-29T11:14:27;5.97;;;1.73;;
72127;SDS011;60000;51.030;7.024;2022-12-29T11:17:01;5.95;;;1.58;;
72127;SDS011;60000;51.030;7.024;2022-12-29T11:19:29;5.70;;;1.00;;
72127;SDS011;60000;51.030;7.024;2022-12-29T11:22:14;3.95;;;1.05;;
72127;SDS011;60000;51.030;7.024;2022-12-29T11:24:44;3.67;;;0.93;;
72127;SDS011;60000;51.030;7.024;2022-12-29T11:27:14;4.45;;;1.13;;
72127;SDS011;60000;51.030;7.024;2022-12-29T11:29:42;6.28;;;0.93;;
72127;SDS011;60000;51.030;7.024;2022-12-29T11:32:12;5.85;;;1.10;;
72127;SDS011;60000;51.030;7.024;2022-12-29T11:34:48;6.45;;;1.30;;
72127;SDS011;60000;51.030;7.024;2022-12-29T11:37:16;5.20;;;1.17;;
72127;SDS011;60000;51.030;7.024;2022-12-29T11:39:55;6.45;;;1.45;;
72127;SDS011;60000;51.030;7.024;2022-12-29T11:43:11;5.95;;;1.25;;
72127;SDS011;60000;51.030;7.024;2022-12-29T11:45:27;5.95;;;1.10;;
72127;SDS011;60000;51.030;7.024;2022-12-29T11:48:07;7.25;;;1.50;;
72127;SDS011;60000;51.030;7.024;2022-12-29T11:50:36;6.45;;;1.30;;
72127;SDS011;60000;51.030;7.024;2022-12-29T11:53:13;7.55;;;2.00;;
72127;SDS011;60000;51.030;7.024;2022-12-29T11:55:55;8.27;;;1.27;;
72127;SDS011;60000;51.030;7.024;2022-12-29T11:58:29;8.55;;;1.25;;
72127;SDS011;60000;51.030;7.024;2022-12-29T12:00:57;6.93;;;1.02;;
72127;SDS011;60000;51.030;7.024;2022-12-29T12:03:27;12.45;;;1.10;;
72127;SDS011;60000;51.030;7.024;2022-12-29T12:06:05;5.30;;;0.95;;
72127;SDS011;60000;51.030;7.024;2022-12-29T12:08:55;7.97;;;1.40;;
72127;SDS011;60000;51.030;7.024;2022-12-29T12:14:20;7.50;;;2.45;;
72127;SDS011;60000;51.030;7.024;2022-12-29T12:16:52;3.38;;;1.00;;
72127;SDS011;60000;51.030;7.024;2022-12-29T12:22:03;5.32;;;1.10;;
72127;SDS011;60000;51.030;7.024;2022-12-29T12:24:37;7.38;;;1.20;;
72127;SDS011;60000;51.030;7.024;2022-12-29T12:32:26;6.22;;;1.63;;
72127;SDS011;60000;51.030;7.024;2022-12-29T12:35:03;6.28;;;1.23;;
72127;SDS011;60000;51.030;7.024;2022-12-29T12:51:25;5.30;;;1.00;;
72127;SDS011;60000;51.030;7.024;2022-12-29T13:00:16;8.32;;;1.10;;
72127;SDS011;60000;51.030;7.024;2022-12-29T13:05:42;5.32;;;0.90;;
72127;SDS011;60000;51.030;7.024;2022-12-29T13:14:13;5.57;;;1.20;;
72127;SDS011;60000;51.030;7.024;2022-12-29T13:24:25;7.13;;;1.47;;
72127;SDS011;60000;51.030;7.024;2022-12-29T13:27:43;5.40;;;0.90;;
72127;SDS011;60000;51.030;7.024;2022-12-29T13:35:08;9.13;;;2.38;;
72127;SDS011;60000;51.030;7.024;2022-12-29T13:40:34;12.53;;;3.57;;
72127;SDS011;60000;51.030;7.024;2022-12-29T13:43:04;7.28;;;1.55;;
72127;SDS011;60000;51.030;7.024;2022-12-29T13:45:31;7.82;;;1.85;;
72127;SDS011;60000;51.030;7.024;2022-12-29T13:48:00;9.50;;;2.20;;
72127;SDS011;60000;51.030;7.024;2022-12-29T13:50:49;10.02;;;3.58;;
72127;SDS011;60000;51.030;7.024;2022-12-29T14:01:46;6.60;;;1.60;;
72127;SDS011;60000;51.030;7.024;2022-12-29T14:04:22;8.00;;;1.58;;
72127;SDS011;60000;51.030;7.024;2022-12-29T14:06:59;5.68;;;1.80;;
72127;SDS011;60000;51.030;7.024;2022-12-29T14:09:50;4.35;;;0.90;;
72127;SDS011;60000;51.030;7.024;2022-12-29T14:14:57;8.23;;;1.60;;
72127;SDS011;60000;51.030;7.024;2022-12-29T14:17:28;6.40;;;1.15;;
72127;SDS011;60000;51.030;7.024;2022-12-29T14:19:53;9.37;;;1.90;;
72127;SDS011;60000;51.030;7.024;2022-12-29T14:22:23;11.00;;;1.70;;
72127;SDS011;60000;51.030;7.024;2022-12-29T14:24:50;7.20;;;1.40;;
72127;SDS011;60000;51.030;7.024;2022-12-29T14:29:42;7.37;;;2.33;;
72127;SDS011;60000;51.030;7.024;2022-12-29T14:34:53;5.18;;;1.50;;
72127;SDS011;60000;51.030;7.024;2022-12-29T14:37:29;5.30;;;1.20;;
72127;SDS011;60000;51.030;7.024;2022-12-29T14:40:14;6.10;;;1.88;;
72127;SDS011;60000;51.030;7.024;2022-12-29T14:42:50;5.45;;;1.20;;
72127;SDS011;60000;51.030;7.024;2022-12-29T14:47:44;6.00;;;1.50;;
72127;SDS011;60000;51.030;7.024;2022-12-29T14:50:16;8.40;;;2.22;;
72127;SDS011;60000;51.030;7.024;2022-12-29T14:52:47;6.57;;;1.65;;
72127;SDS011;60000;51.030;7.024;2022-12-29T14:57:41;11.10;;;1.67;;
72127;SDS011;60000;51.030;7.024;2022-12-29T15:00:30;8.70;;;1.88;;
72127;SDS011;60000;51.030;7.024;2022-12-29T15:03:13;7.38;;;1.70;;
72127;SDS011;60000;51.030;7.024;2022-12-29T15:08:37;7.80;;;2.13;;
72127;SDS011;60000;51.030;7.024;2022-12-29T15:11:18;5.53;;;1.45;;
72127;SDS011;60000;51.030;7.024;2022-12-29T15:13:46;7.82;;;1.45;;
72127;SDS011;60000;51.030;7.024;2022-12-29T15:18:50;7.57;;;1.95;;
72127;SDS011;60000;51.030;7.024;2022-12-29T15:21:15;7.47;;;1.77;;
72127;SDS011;60000;51.030;7.024;2022-12-29T15:23:42;5.47;;;1.38;;
72127;SDS011;60000;51.030;7.024;2022-12-29T15:26:09;6.20;;;1.30;;
72127;SDS011;60000;51.030;7.024;2022-12-29T15:28:39;7.63;;;1.50;;
72127;SDS011;60000;51.030;7.024;2022-12-29T15:31:11;4.50;;;1.27;;
72127;SDS011;60000;51.030;7.024;2022-12-29T15:33:37;5.63;;;1.20;;
72127;SDS011;60000;51.030;7.024;2022-12-29T15:36:10;4.32;;;1.30;;
72127;SDS011;60000;51.030;7.024;2022-12-29T15:38:48;5.32;;;1.90;;
72127;SDS011;60000;51.030;7.024;2022-12-29T15:41:19;6.40;;;1.70;;
72127;SDS011;60000;51.030;7.024;2022-12-29T15:44:09;6.35;;;1.10;;
72127;SDS011;60000;51.030;7.024;2022-12-29T15:46:42;6.95;;;1.77;;
72127;SDS011;60000;51.030;7.024;2022-12-29T15:49:08;8.27;;;2.58;;
72127;SDS011;60000;51.030;7.024;2022-12-29T15:51:38;9.73;;;2.67;;
72127;SDS011;60000;51.030;7.024;2022-12-29T15:54:05;6.82;;;1.60;;
72127;SDS011;60000;51.030;7.024;2022-12-29T15:56:37;7.97;;;2.15;;
72127;SDS011;60000;51.030;7.024;2022-12-29T15:59:02;6.03;;;2.00;;
72127;SDS011;60000;51.030;7.024;2022-12-29T16:01:34;7.60;;;1.87;;
72127;SDS011;60000;51.030;7.024;2022-12-29T16:04:04;6.13;;;1.58;;
72127;SDS011;60000;51.030;7.024;2022-12-29T16:06:33;6.55;;;1.58;;
72127;SDS011;60000;51.030;7.024;2022-12-29T16:11:38;7.40;;;1.60;;
72127;SDS011;60000;51.030;7.024;2022-12-29T16:14:07;5.57;;;1.80;;
72127;SDS011;60000;51.030;7.024;2022-12-29T16:16:41;8.40;;;1.70;;
72127;SDS011;60000;51.030;7.024;2022-12-29T16:19:19;6.70;;;1.83;;
72127;SDS011;60000;51.030;7.024;2022-12-29T16:21:49;11.05;;;3.05;;
72127;SDS011;60000;51.030;7.024;2022-12-29T16:24:16;8.30;;;1.90;;
72127;SDS011;60000;51.030;7.024;2022-12-29T16:26:48;8.60;;;1.75;;
72127;SDS011;60000;51.030;7.024;2022-12-29T16:29:15;6.97;;;1.90;;
72127;SDS011;60000;51.030;7.024;2022-12-29T16:31:49;10.52;;;1.95;;
72127;SDS011;60000;51.030;7.024;2022-12-29T16:34:24;10.55;;;2.00;;
72127;SDS011;60000;51.030;7.024;2022-12-29T16:37:24;6.57;;;1.40;;
72127;SDS011;60000;51.030;7.024;2022-12-29T16:40:20;7.40;;;1.48;;
72127;SDS011;60000;51.030;7.024;2022-12-29T16:42:48;6.25;;;1.75;;
72127;SDS011;60000;51.030;7.024;2022-12-29T16:47:43;8.35;;;1.50;;
72127;SDS011;60000;51.030;7.024;2022-12-29T16:50:12;6.33;;;1.53;;
72127;SDS011;60000;51.030;7.024;2022-12-29T16:52:41;8.27;;;1.70;;
72127;SDS011;60000;51.030;7.024;2022-12-29T16:55:14;6.67;;;1.50;;
72127;SDS011;60000;51.030;7.024;2022-12-29T16:57:41;6.43;;;1.83;;
72127;SDS011;60000;51.030;7.024;2022-12-29T17:00:17;7.60;;;1.53;;
72127;SDS011;60000;51.030;7.024;2022-12-29T17:02:44;14.43;;;3.50;;
72127;SDS011;60000;51.030;7.024;2022-12-29T17:05:13;10.35;;;2.22;;
72127;SDS011;60000;51.030;7.024;2022-12-29T17:07:39;10.07;;;1.70;;
72127;SDS011;60000;51.030;7.024;2022-12-29T17:10:05;7.22;;;1.98;;
72127;SDS011;60000;51.030;7.024;2022-12-29T17:12:30;7.70;;;1.67;;
72127;SDS011;60000;51.030;7.024;2022-12-29T17:15:00;11.77;;;1.90;;
72127;SDS011;60000;51.030;7.024;2022-12-29T17:20:05;7.53;;;1.80;;
72127;SDS011;60000;51.030;7.024;2022-12-29T17:22:31;9.38;;;2.90;;
72127;SDS011;60000;51.030;7.024;2022-12-29T17:24:57;6.03;;;1.53;;
72127;SDS011;60000;51.030;7.024;2022-12-29T17:27:26;7.95;;;2.17;;
72127;SDS011;60000;51.030;7.024;2022-12-29T17:30:11;6.97;;;2.10;;
72127;SDS011;60000;51.030;7.024;2022-12-29T17:32:39;9.82;;;2.22;;
72127;SDS011;60000;51.030;7.024;2022-12-29T17:35:05;11.65;;;3.88;;
72127;SDS011;60000;51.030;7.024;2022-12-29T17:37:37;10.73;;;2.93;;
72127;SDS011;60000;51.030;7.024;2022-12-29T17:40:03;14.05;;;1.80;;
72127;SDS011;60000;51.030;7.024;2022-12-29T17:42:30;6.20;;;1.70;;
72127;SDS011;60000;51.030;7.024;2022-12-29T17:44:58;10.73;;;2.72;;
72127;SDS011;60000;51.030;7.024;2022-12-29T17:47:25;8.15;;;1.90;;
72127;SDS011;60000;51.030;7.024;2022-12-29T17:49:50;7.33;;;2.00;;
72127;SDS011;60000;51.030;7.024;2022-12-29T17:52:16;10.60;;;3.10;;